Terminal Aerodrome Forecast
Issued by NWS

Home | Current Version | Previous Version | Text Only | Print | Product List | Glossary On
Versions: 1 2 3 4 5 6 7 8 9 10 11 12 13 14 15 16 17 18 19 20
000
FTAK31 PAJN 022323
TAFASI
TAF
PASI 022323Z 0300/0324 21005KT P6SM VCSH SCT025 BKN030 OVC060
     FM030300 VRB03KT P6SM BKN035 BKN060
     FM030900 10005KT P6SM FEW005 BKN060
     FM031800 25006KT P6SM SCT030 BKN070=

USA.gov is the U.S. government's official web portal to all federal, state and local government web resources and services.